createdAt,value
2018-05-02T00:01:50.757Z,3.30
2018-05-02T00:04:18.284Z,3.20
2018-05-02T00:06:46.589Z,3.30
2018-05-02T00:09:14.113Z,3.20
2018-05-02T00:11:41.654Z,3.20
2018-05-02T00:14:09.168Z,3.10
2018-05-02T00:16:36.700Z,3.00
2018-05-02T00:19:04.846Z,2.90
2018-05-02T00:21:32.389Z,2.90
2018-05-02T00:23:59.943Z,3.00
2018-05-02T00:26:27.512Z,3.00
2018-05-02T00:28:55.073Z,3.00
2018-05-02T00:31:22.604Z,3.00
2018-05-02T00:33:50.893Z,3.10
2018-05-02T00:36:19.205Z,3.10
2018-05-02T00:38:46.724Z,3.10
2018-05-02T00:41:15.013Z,3.00
2018-05-02T00:43:43.315Z,2.90
2018-05-02T00:46:10.892Z,2.90
2018-05-02T00:48:50.319Z,2.90
2018-05-02T00:51:17.892Z,2.80
2018-05-02T00:53:45.450Z,2.70
2018-05-02T00:56:12.971Z,2.60
2018-05-02T00:58:40.504Z,2.60
2018-05-02T01:01:08.052Z,2.60
2018-05-02T01:03:35.600Z,2.60
2018-05-02T01:06:03.168Z,2.70
2018-05-02T01:08:30.699Z,2.70
2018-05-02T01:10:59.016Z,2.60
2018-05-02T01:13:26.552Z,2.50
2018-05-02T01:15:54.069Z,2.50
2018-05-02T01:18:21.650Z,2.50
2018-05-02T01:20:49.161Z,2.50
2018-05-02T01:23:16.725Z,2.50
2018-05-02T01:25:44.280Z,2.60
2018-05-02T01:28:11.789Z,2.60
2018-05-02T01:30:39.320Z,2.60
2018-05-02T01:33:06.831Z,2.60
2018-05-02T01:35:35.144Z,2.60
2018-05-02T01:38:02.665Z,2.60
2018-05-02T01:40:30.201Z,2.60
2018-05-02T01:42:57.720Z,2.50
2018-05-02T01:45:25.253Z,2.50
2018-05-02T01:47:53.531Z,2.40
2018-05-02T01:50:21.839Z,2.40
2018-05-02T01:52:49.360Z,2.40
2018-05-02T01:55:16.900Z,2.40
2018-05-02T01:57:44.420Z,2.40
2018-05-02T02:00:12.803Z,2.40
2018-05-02T02:02:41.084Z,2.30
2018-05-02T02:05:08.616Z,2.30
2018-05-02T02:07:36.131Z,2.30
2018-05-02T02:10:03.696Z,2.30
2018-05-02T02:12:31.211Z,2.40
2018-05-02T02:14:59.488Z,2.40
2018-05-02T02:17:27.024Z,2.40
2018-05-02T02:19:54.535Z,2.50
2018-05-02T02:22:22.076Z,2.50
2018-05-02T02:24:49.596Z,2.50
2018-05-02T02:27:17.136Z,2.50
2018-05-02T02:29:44.656Z,2.60
2018-05-02T02:32:12.198Z,2.50
2018-05-02T02:34:39.735Z,2.50
2018-05-02T02:37:07.276Z,2.50
2018-05-02T02:39:34.862Z,2.40
2018-05-02T02:42:02.420Z,2.30
2018-05-02T02:44:29.939Z,2.30
2018-05-02T02:46:58.236Z,2.20
2018-05-02T02:49:25.752Z,2.20
2018-05-02T02:51:53.385Z,2.10
2018-05-02T02:54:20.900Z,2.20
2018-05-02T02:56:49.181Z,2.20
2018-05-02T02:59:17.504Z,2.30
2018-05-02T03:01:45.021Z,2.30
2018-05-02T03:04:13.328Z,2.50
2018-05-02T03:06:40.845Z,2.40
2018-05-02T03:09:08.477Z,2.50
2018-05-02T03:11:35.991Z,2.40
2018-05-02T03:14:03.521Z,2.40
2018-05-02T03:16:31.037Z,2.40
2018-05-02T03:18:59.333Z,2.20
2018-05-02T03:21:26.847Z,2.20
2018-05-02T03:23:54.391Z,2.30
2018-05-02T03:26:21.908Z,2.30
2018-05-02T03:28:49.492Z,2.30
2018-05-02T03:31:17.007Z,2.40
2018-05-02T03:33:45.289Z,2.40
2018-05-02T03:36:13.595Z,2.40
2018-05-02T03:38:41.273Z,2.40
2018-05-02T03:41:08.804Z,2.40
2018-05-02T03:43:37.089Z,2.40
2018-05-02T03:46:05.388Z,2.40
2018-05-02T03:48:32.904Z,2.30
2018-05-02T03:51:00.437Z,2.30
2018-05-02T03:53:27.985Z,2.20
2018-05-02T03:55:55.515Z,2.20
2018-05-02T03:58:23.805Z,2.20
2018-05-02T04:01:04.092Z,2.20
2018-05-02T04:03:43.429Z,2.20
2018-05-02T04:06:22.945Z,2.30
2018-05-02T04:08:51.227Z,2.40
2018-05-02T04:11:19.526Z,2.50
2018-05-02T04:13:47.041Z,2.50
2018-05-02T04:16:14.661Z,2.60
2018-05-02T04:18:42.288Z,2.70
2018-05-02T04:21:09.762Z,2.70
2018-05-02T04:23:37.294Z,2.80
2018-05-02T04:26:04.890Z,2.80
2018-05-02T04:28:32.367Z,2.80
2018-05-02T04:30:59.892Z,2.80
2018-05-02T04:33:28.191Z,2.80
2018-05-02T04:35:55.707Z,2.80
2018-05-02T04:38:23.244Z,2.90
2018-05-02T04:40:50.809Z,2.90
2018-05-02T04:43:18.328Z,2.90
2018-05-02T04:45:46.613Z,2.90
2018-05-02T04:48:14.160Z,2.90
2018-05-02T04:50:42.441Z,3.00
2018-05-02T04:53:10.745Z,3.10
2018-05-02T04:55:38.262Z,3.10
2018-05-02T04:58:05.802Z,3.20
2018-05-02T05:00:33.328Z,3.30
2018-05-02T05:03:00.866Z,3.40
2018-05-02T05:05:29.148Z,3.70
2018-05-02T05:07:57.427Z,3.80
2018-05-02T05:10:25.728Z,3.90
2018-05-02T05:12:53.250Z,3.90
2018-05-02T05:15:20.787Z,4.00
2018-05-02T05:17:48.308Z,4.10
2018-05-02T05:20:15.887Z,4.30
2018-05-02T05:22:43.403Z,4.40
2018-05-02T05:25:10.939Z,4.50
2018-05-02T05:27:38.455Z,4.70
2018-05-02T05:30:06.036Z,4.80
2018-05-02T05:32:33.599Z,5.00
2018-05-02T05:35:01.138Z,5.10
2018-05-02T05:37:29.423Z,5.30
2018-05-02T05:39:56.963Z,5.30
2018-05-02T05:42:25.248Z,5.50
2018-05-02T05:44:53.555Z,5.50
2018-05-02T05:47:21.067Z,5.50
2018-05-02T05:49:48.682Z,5.60
2018-05-02T05:52:16.223Z,5.80
2018-05-02T05:54:44.499Z,6.30
2018-05-02T05:57:12.801Z,6.50
2018-05-02T05:59:40.317Z,6.50
2018-05-02T06:02:07.851Z,6.90
2018-05-02T06:04:35.385Z,7.20
2018-05-02T06:07:02.953Z,7.40
2018-05-02T06:09:30.484Z,7.70
2018-05-02T06:11:58.797Z,8.10
2018-05-02T06:14:26.303Z,8.10
2018-05-02T06:16:53.832Z,8.30
2018-05-02T06:19:21.345Z,8.50
2018-05-02T06:21:49.656Z,9.00
2018-05-02T06:24:17.168Z,9.00
2018-05-02T06:26:44.680Z,9.50
2018-05-02T06:29:12.211Z,9.90
2018-05-02T06:31:39.812Z,10.30
2018-05-02T06:34:08.081Z,11.00
2018-05-02T06:36:35.600Z,11.00
2018-05-02T06:39:03.137Z,11.40
2018-05-02T06:41:30.664Z,11.80
2018-05-02T06:43:58.196Z,12.30
2018-05-02T06:46:26.476Z,13.20
2018-05-02T06:48:54.772Z,13.60
2018-05-02T06:51:22.292Z,13.50
2018-05-02T06:53:49.827Z,13.80
2018-05-02T06:56:17.332Z,14.30
2018-05-02T06:58:44.867Z,15.20
2018-05-02T07:01:12.383Z,16.20
2018-05-02T07:03:39.929Z,17.80
2018-05-02T07:06:08.211Z,20.00
2018-05-02T07:08:36.515Z,20.40
2018-05-02T07:11:04.033Z,20.40
2018-05-02T07:13:31.608Z,20.60
2018-05-02T07:15:59.108Z,20.90
2018-05-02T07:18:26.625Z,20.40
2018-05-02T07:20:54.162Z,19.70
2018-05-02T07:23:21.683Z,18.90
2018-05-02T07:25:49.217Z,17.90
2018-05-02T07:28:16.729Z,16.90
2018-05-02T07:30:44.263Z,16.50
2018-05-02T07:33:11.783Z,16.20
2018-05-02T07:35:39.323Z,16.20
2018-05-02T07:38:06.837Z,16.30
2018-05-02T07:40:35.145Z,16.50
2018-05-02T07:43:02.663Z,16.50
2018-05-02T07:45:30.191Z,16.70
2018-05-02T07:47:57.719Z,17.00
2018-05-02T07:50:25.256Z,17.30
2018-05-02T07:52:52.773Z,17.40
2018-05-02T07:55:20.319Z,17.10
2018-05-02T07:57:47.844Z,17.10
2018-05-02T08:00:16.124Z,17.20
2018-05-02T08:02:44.424Z,17.20
2018-05-02T08:05:11.937Z,17.20
2018-05-02T08:07:39.473Z,17.20
2018-05-02T08:10:06.988Z,16.80
2018-05-02T08:12:34.532Z,16.40
2018-05-02T08:15:02.055Z,16.20
2018-05-02T08:17:29.592Z,16.10
2018-05-02T08:19:57.876Z,16.10
2018-05-02T08:22:26.177Z,16.20
2018-05-02T08:24:53.692Z,16.20
2018-05-02T08:27:21.223Z,16.10
2018-05-02T08:29:48.735Z,16.00
2018-05-02T08:32:17.035Z,16.10
2018-05-02T08:34:44.555Z,16.00
2018-05-02T08:37:12.084Z,16.10
2018-05-02T08:39:39.599Z,16.20
2018-05-02T08:42:07.911Z,16.40
2018-05-02T08:44:35.424Z,16.40
2018-05-02T08:47:02.939Z,16.50
2018-05-02T08:49:30.761Z,16.50
2018-05-02T08:51:58.272Z,16.20
2018-05-02T08:54:25.809Z,15.80
2018-05-02T08:56:54.089Z,16.30
2018-05-02T08:59:21.619Z,16.20
2018-05-02T09:01:49.132Z,16.80
2018-05-02T09:04:16.667Z,17.00
2018-05-02T09:06:44.961Z,18.30
2018-05-02T09:09:12.501Z,18.30
2018-05-02T09:11:41.635Z,18.30
2018-05-02T09:14:10.138Z,18.40
2018-05-02T09:16:37.656Z,18.40
2018-05-02T09:19:05.193Z,18.40
2018-05-02T09:21:32.705Z,18.60
2018-05-02T09:24:00.251Z,18.60
2018-05-02T09:26:27.763Z,18.20
2018-05-02T09:28:55.281Z,17.90
2018-05-02T09:31:22.811Z,17.60
2018-05-02T09:33:51.095Z,17.30
2018-05-02T09:36:19.391Z,17.40
2018-05-02T09:38:46.905Z,17.40
2018-05-02T09:41:14.445Z,17.70
2018-05-02T09:43:41.961Z,17.90
2018-05-02T09:46:11.080Z,17.80
2018-05-02T09:48:38.596Z,17.70
2018-05-02T09:51:06.127Z,17.90
2018-05-02T09:53:33.640Z,18.10
2018-05-02T10:39:42.790Z,18.40
2018-05-02T10:42:10.329Z,18.00
2018-05-02T10:44:37.843Z,18.10
2018-05-02T10:47:05.447Z,18.20
2018-05-02T10:49:32.963Z,18.40
2018-05-02T10:52:00.480Z,18.50
2018-05-02T10:54:28.011Z,18.60
2018-05-02T10:56:55.523Z,18.80
2018-05-02T10:59:23.062Z,19.00
2018-05-02T11:01:50.577Z,19.20
2018-05-02T11:04:18.112Z,19.30
2018-05-02T11:06:45.644Z,19.30
2018-05-02T11:09:13.200Z,19.40
2018-05-02T11:11:40.720Z,19.50
2018-05-02T11:14:08.256Z,19.60
2018-05-02T11:16:35.773Z,19.50
2018-05-02T11:19:03.365Z,19.40
2018-05-02T11:21:30.876Z,19.50
2018-05-02T11:23:59.203Z,19.40
2018-05-02T11:26:26.764Z,19.40
2018-05-02T11:28:54.317Z,19.50
2018-05-02T11:31:21.881Z,19.80
2018-05-02T11:33:49.440Z,20.10
2018-05-02T11:36:17.003Z,20.20
2018-05-02T11:38:44.528Z,20.20
2018-05-02T11:41:12.134Z,20.20
2018-05-02T11:43:39.707Z,20.10
2018-05-02T11:46:07.240Z,20.20
2018-05-02T11:48:35.544Z,20.40
2018-05-02T11:51:03.110Z,20.40
2018-05-02T11:53:30.675Z,20.50
2018-05-02T11:55:58.212Z,20.70
2018-05-02T11:58:26.525Z,20.60
2018-05-02T12:00:54.059Z,20.60
2018-05-02T12:03:22.345Z,20.30
2018-05-02T12:05:50.653Z,20.30
2018-05-02T12:08:18.165Z,20.30
2018-05-02T12:10:45.697Z,20.40
2018-05-02T12:13:13.204Z,20.20
2018-05-02T12:15:42.261Z,19.90
2018-05-02T12:18:09.777Z,19.80
2018-05-02T12:20:38.057Z,19.80
2018-05-02T12:23:06.356Z,19.70
2018-05-02T12:25:33.871Z,19.70
2018-05-02T12:28:01.497Z,19.90
2018-05-02T12:33:20.485Z,20.10
2018-05-02T12:35:48.001Z,20.10
2018-05-02T12:38:15.607Z,20.40
2018-05-02T12:40:43.121Z,20.60
2018-05-02T12:43:10.655Z,20.70
2018-05-02T12:45:38.174Z,20.80
2018-05-02T12:48:06.477Z,20.60
2018-05-02T12:50:33.998Z,20.60
2018-05-02T12:53:01.601Z,20.60
2018-05-02T12:55:29.173Z,20.60
2018-05-02T12:57:56.730Z,20.50
2018-05-02T13:00:24.288Z,20.40
2018-05-02T13:02:51.883Z,20.20
2018-05-02T13:05:19.356Z,20.10
2018-05-02T13:07:46.896Z,20.10
2018-05-02T13:10:14.407Z,19.90
2018-05-02T13:12:42.707Z,19.50
2018-05-02T13:15:10.220Z,19.50
2018-05-02T13:17:37.737Z,19.30
2018-05-02T13:20:05.271Z,19.20
2018-05-02T13:22:33.552Z,19.10
2018-05-02T13:25:01.854Z,19.30
2018-05-02T13:27:29.370Z,19.30
2018-05-02T13:29:56.907Z,19.60
2018-05-02T13:32:24.424Z,19.90
2018-05-02T13:34:52.730Z,20.50
2018-05-02T13:37:20.243Z,20.50
2018-05-02T13:39:47.776Z,20.70
2018-05-02T13:42:15.295Z,21.00
2018-05-02T13:44:43.598Z,21.40
2018-05-02T13:47:11.160Z,21.30
2018-05-02T13:49:38.696Z,21.50
2018-05-02T13:52:06.978Z,21.70
2018-05-02T13:54:35.285Z,21.50
2018-05-02T13:57:02.800Z,21.50
2018-05-02T13:59:30.321Z,21.50
2018-05-02T14:01:57.855Z,21.50
2018-05-02T14:04:26.894Z,21.70
2018-05-02T14:06:54.428Z,21.90
2018-05-02T14:09:21.944Z,22.20
2018-05-02T14:11:49.480Z,22.40
2018-05-02T14:14:16.998Z,22.40
2018-05-02T14:16:45.306Z,22.30
2018-05-02T14:19:12.894Z,22.30
2018-05-02T14:21:40.419Z,22.40
2018-05-02T14:24:07.936Z,22.20
2018-05-02T14:26:35.480Z,21.90
2018-05-02T14:29:03.256Z,21.60
2018-05-02T14:31:30.777Z,21.30
2018-05-02T14:33:58.343Z,20.80
2018-05-02T14:36:25.861Z,20.50
2018-05-02T14:38:53.396Z,20.00
2018-05-02T14:41:20.913Z,19.60
2018-05-02T14:43:48.453Z,19.30
2018-05-02T14:46:16.741Z,18.70
2018-05-02T14:48:45.216Z,18.60
2018-05-02T14:51:13.540Z,18.50
2018-05-02T14:53:41.075Z,18.50
2018-05-02T14:56:08.597Z,18.40
2018-05-02T14:58:36.217Z,18.30
2018-05-02T15:01:03.733Z,18.10
2018-05-02T15:03:31.279Z,18.00
2018-05-02T15:05:58.787Z,17.90
2018-05-02T15:08:27.090Z,17.70
2018-05-02T15:10:54.616Z,17.70
2018-05-02T15:13:22.915Z,17.70
2018-05-02T15:15:50.432Z,17.70
2018-05-02T15:18:17.949Z,17.80
2018-05-02T15:20:45.479Z,17.80
2018-05-02T15:23:13.093Z,17.90
2018-05-02T15:25:40.630Z,17.90
2018-05-02T15:28:08.144Z,17.80
2018-05-02T15:30:35.681Z,17.80
2018-05-02T15:33:03.192Z,17.70
2018-05-02T15:35:30.808Z,17.70
2018-05-02T15:37:58.371Z,17.70
2018-05-02T15:40:25.962Z,17.80
2018-05-02T15:42:53.497Z,17.80
2018-05-02T15:45:21.058Z,17.80
2018-05-02T15:47:48.571Z,17.90
2018-05-02T15:50:16.119Z,17.90
2018-05-02T15:52:43.639Z,17.90
2018-05-02T15:55:11.151Z,17.90
2018-05-02T15:57:38.696Z,17.90
2018-05-02T16:00:06.215Z,17.90
2018-05-02T16:02:34.620Z,17.80
2018-05-02T16:05:02.196Z,17.80
2018-05-02T16:07:29.744Z,17.90
2018-05-02T16:09:57.279Z,17.90
2018-05-02T16:12:25.580Z,17.90
2018-05-02T16:14:53.157Z,17.90
2018-05-02T16:17:20.698Z,17.90
2018-05-02T16:19:48.215Z,17.80
2018-05-02T16:22:15.753Z,17.70
2018-05-02T16:24:43.268Z,17.60
2018-05-02T16:27:11.563Z,17.40
2018-05-02T16:29:39.844Z,17.30
2018-05-02T16:32:08.143Z,17.30
2018-05-02T16:34:35.719Z,17.30
2018-05-02T16:37:03.260Z,17.30
2018-05-02T16:39:31.547Z,17.20
2018-05-02T16:41:59.067Z,17.20
2018-05-02T16:44:26.596Z,17.20
2018-05-02T16:46:54.105Z,17.20
2018-05-02T16:49:21.635Z,17.20
2018-05-02T16:51:49.176Z,17.20
2018-05-02T16:54:16.711Z,17.10
2018-05-02T16:56:45.025Z,17.00
2018-05-02T16:59:12.560Z,17.00
2018-05-02T17:01:40.831Z,16.60
2018-05-02T17:04:09.203Z,16.40
2018-05-02T17:06:36.720Z,16.40
2018-05-02T17:09:04.986Z,16.20
2018-05-02T17:11:32.509Z,16.10
2018-05-02T17:14:00.043Z,16.00
2018-05-02T17:16:27.560Z,15.90
2018-05-02T17:18:55.870Z,15.90
2018-05-02T17:21:23.387Z,15.90
2018-05-02T17:23:50.935Z,15.90
2018-05-02T17:26:18.555Z,15.80
2018-05-02T17:28:46.069Z,15.70
2018-05-02T17:31:13.604Z,15.70
2018-05-02T17:33:41.116Z,15.60
2018-05-02T17:36:09.420Z,15.60
2018-05-02T17:38:36.931Z,15.60
2018-05-02T17:41:04.552Z,15.60
2018-05-02T17:43:32.130Z,15.60
2018-05-02T17:45:59.669Z,15.60
2018-05-02T17:48:27.240Z,15.60
2018-05-02T17:50:54.772Z,15.60
2018-05-02T17:53:22.287Z,15.50
2018-05-02T17:55:49.824Z,15.40
2018-05-02T17:58:18.100Z,15.20
2018-05-02T18:00:46.402Z,15.10
2018-05-02T18:03:13.916Z,15.10
2018-05-02T18:05:41.463Z,15.00
2018-05-02T18:08:08.982Z,14.90
2018-05-02T18:10:36.487Z,14.70
2018-05-02T18:13:04.024Z,14.60
2018-05-02T18:15:31.544Z,14.50
2018-05-02T18:17:59.848Z,14.30
2018-05-02T18:20:27.365Z,14.30
2018-05-02T18:22:54.982Z,14.30
2018-05-02T18:25:22.447Z,14.30
2018-05-02T18:27:50.005Z,14.30
2018-05-02T18:30:17.528Z,14.20
2018-05-02T18:32:45.832Z,13.90
2018-05-02T18:35:13.339Z,13.90
2018-05-02T18:37:40.873Z,13.80
2018-05-02T18:40:08.383Z,13.80
2018-05-02T18:42:35.920Z,13.70
2018-05-02T18:45:03.437Z,13.60
2018-05-02T18:47:30.977Z,13.50
2018-05-02T18:49:59.252Z,13.40
2018-05-02T18:52:26.771Z,13.40
2018-05-02T18:54:54.307Z,13.40
2018-05-02T18:57:21.824Z,13.40
2018-05-02T18:59:49.360Z,13.40
2018-05-02T19:02:16.911Z,13.30
2018-05-02T19:04:44.484Z,13.30
2018-05-02T19:07:12.004Z,13.30
2018-05-02T19:09:40.306Z,13.20
2018-05-02T19:12:08.741Z,13.20
2018-05-02T19:14:36.984Z,13.00
2018-05-02T19:17:04.501Z,13.00
2018-05-02T19:19:37.625Z,12.90
2018-05-02T19:22:05.139Z,12.80
2018-05-02T19:24:38.323Z,12.70
2018-05-02T19:27:05.852Z,12.70
2018-05-02T19:29:33.416Z,12.70
2018-05-02T19:32:06.620Z,12.70
2018-05-02T19:34:34.161Z,12.60
2018-05-02T19:37:02.435Z,12.60
2018-05-02T19:39:36.435Z,12.60
2018-05-02T19:42:09.608Z,12.50
2018-05-02T19:44:37.148Z,12.50
2018-05-02T19:47:04.666Z,12.50
2018-05-02T19:49:32.955Z,12.50
2018-05-02T19:52:07.003Z,12.40
2018-05-02T19:54:34.564Z,12.30
2018-05-02T19:57:02.184Z,12.30
2018-05-02T19:59:29.635Z,12.30
2018-05-02T20:02:02.982Z,12.30
2018-05-02T20:04:30.497Z,12.20
2018-05-02T20:06:58.038Z,12.20
2018-05-02T20:09:31.249Z,12.10
2018-05-02T20:12:04.463Z,12.00
2018-05-02T20:14:32.745Z,12.00
2018-05-02T20:17:01.049Z,12.00
2018-05-02T20:19:28.568Z,11.90
2018-05-02T20:21:56.105Z,11.90
2018-05-02T20:24:23.621Z,11.90
2018-05-02T20:26:51.921Z,12.00
2018-05-02T20:29:19.488Z,12.00
2018-05-02T20:31:47.048Z,12.00
2018-05-02T20:34:14.572Z,12.00
2018-05-02T20:36:42.903Z,12.00
2018-05-02T20:39:10.424Z,12.00
2018-05-02T20:41:38.726Z,12.00
2018-05-02T20:44:06.266Z,12.00
2018-05-02T20:46:34.649Z,11.80
2018-05-02T20:49:02.120Z,11.80
2018-05-02T20:51:30.395Z,11.60
2018-05-02T20:53:58.701Z,11.40
2018-05-02T20:56:26.207Z,11.40
2018-05-02T20:58:54.512Z,11.30
2018-05-02T21:01:22.829Z,11.30
2018-05-02T21:03:50.371Z,11.30
2018-05-02T21:06:17.887Z,11.20
2018-05-02T21:08:45.423Z,11.20
2018-05-02T21:11:12.937Z,11.20
2018-05-02T21:13:41.236Z,11.20
2018-05-02T21:16:08.748Z,11.20
2018-05-02T21:18:36.284Z,11.20
2018-05-02T21:21:03.805Z,11.10
2018-05-02T21:23:32.083Z,11.00
2018-05-02T21:26:00.395Z,11.00
2018-05-02T21:28:27.908Z,10.90
2018-05-02T21:30:56.222Z,10.90
2018-05-02T21:33:23.800Z,10.90
2018-05-02T21:35:51.368Z,11.00
2018-05-02T21:38:18.883Z,11.00
2018-05-02T21:40:46.454Z,11.10
2018-05-02T21:43:15.457Z,11.20
2018-05-02T21:45:43.752Z,11.20
2018-05-02T21:48:12.029Z,11.30
2018-05-02T21:50:40.331Z,11.30
2018-05-02T21:53:07.855Z,11.20
2018-05-02T21:55:35.387Z,11.20
2018-05-02T21:58:02.911Z,11.20
2018-05-02T22:00:30.455Z,11.20
2018-05-02T22:02:58.740Z,11.20
2018-05-02T22:05:27.024Z,11.20
2018-05-02T22:07:55.325Z,11.30
2018-05-02T22:10:22.845Z,11.20
2018-05-02T22:12:51.149Z,11.30
2018-05-02T22:15:19.428Z,11.30
2018-05-02T22:17:47.728Z,11.40
2018-05-02T22:20:15.240Z,11.30
2018-05-02T22:22:42.774Z,11.20
2018-05-02T22:25:10.317Z,11.10
2018-05-02T22:27:37.857Z,11.10
2018-05-02T22:30:06.160Z,11.00
2018-05-02T22:32:33.692Z,11.00
2018-05-02T22:35:01.971Z,10.80
2018-05-02T22:37:29.577Z,10.80
2018-05-02T22:39:57.096Z,10.80
2018-05-02T22:42:25.421Z,10.80
2018-05-02T22:44:52.955Z,10.80
2018-05-02T22:47:21.232Z,10.90
2018-05-02T22:49:49.535Z,10.90
2018-05-02T22:52:17.108Z,10.90
2018-05-02T22:54:44.673Z,10.90
2018-05-02T22:57:12.182Z,10.90
2018-05-02T22:59:40.484Z,11.00
2018-05-02T23:02:08.768Z,10.90
2018-05-02T23:04:37.175Z,10.90
2018-05-02T23:07:04.692Z,10.80
2018-05-02T23:09:32.223Z,10.80
2018-05-02T23:11:59.748Z,10.70
2018-05-02T23:14:28.043Z,10.70
2018-05-02T23:16:55.555Z,10.70
2018-05-02T23:19:23.099Z,10.70
2018-05-02T23:21:50.621Z,10.70
2018-05-02T23:24:18.925Z,10.60
2018-05-02T23:26:46.442Z,10.60
2018-05-02T23:29:13.953Z,10.60
2018-05-02T23:31:41.485Z,10.70
2018-05-02T23:34:09.769Z,10.80
2018-05-02T23:36:38.077Z,10.80
2018-05-02T23:39:05.594Z,10.80
2018-05-02T23:41:33.127Z,10.80
2018-05-02T23:44:00.641Z,10.80
2018-05-02T23:46:28.940Z,10.80
2018-05-02T23:48:56.451Z,10.80
2018-05-02T23:51:23.985Z,10.80
2018-05-02T23:53:51.498Z,10.80
2018-05-02T23:56:19.813Z,10.80
2018-05-02T23:58:47.334Z,10.80
